Blackfoot, Montana
Current Conditions -  °F | °C
As of 3:56 PM on Thursday 27 Nov 2014 (Local Time) from KCTB Reporting Station
Clear Clear  
Wind Chill:   Ceiling: Unl
Heat Index:   Visibility: 10mi
Dew Point:   Wind: 30mph
Humidity: 68%   Direction: 260°W
Pressure: 29.69"   Gusts: 39mph
Location:  48.5484°N, 112.952°W
Report Text: KCTB 272256Z AUTO 26026G34KT 10SM CLR 08/02 A2969 RMK AO2 PK WND 26041/2204 SLP074 T00780022 $
Loading
Personal Weather Stations






























Interactive Weather Map New forecast layout! Learn more

10-Day Weather Forecast

Advertisements
Track Severe Weather on mobile